sensor_id;sensor_type;location;lat;lon;timestamp;temperature;humidity
67249;SHT31;54162;54.300;18.592;2022-09-01T00:01:27;11.36;90.80
67249;SHT31;54162;54.300;18.592;2022-09-01T00:03:55;11.36;91.10
67249;SHT31;54162;54.300;18.592;2022-09-01T00:06:24;11.38;90.81
67249;SHT31;54162;54.300;18.592;2022-09-01T00:08:54;11.36;90.76
67249;SHT31;54162;54.300;18.592;2022-09-01T00:11:22;11.40;90.69
67249;SHT31;54162;54.300;18.592;2022-09-01T00:13:51;11.29;90.91
67249;SHT31;54162;54.300;18.592;2022-09-01T00:16:18;11.40;90.40
67249;SHT31;54162;54.300;18.592;2022-09-01T00:18:46;11.38;90.46
67249;SHT31;54162;54.300;18.592;2022-09-01T00:21:13;11.40;90.38
67249;SHT31;54162;54.300;18.592;2022-09-01T00:23:39;11.46;90.39
67249;SHT31;54162;54.300;18.592;2022-09-01T00:26:05;11.36;90.45
67249;SHT31;54162;54.300;18.592;2022-09-01T00:28:37;11.31;90.31
67249;SHT31;54162;54.300;18.592;2022-09-01T00:31:04;11.31;90.87
67249;SHT31;54162;54.300;18.592;2022-09-01T00:33:31;11.31;90.74
67249;SHT31;54162;54.300;18.592;2022-09-01T00:35:57;11.31;90.40
67249;SHT31;54162;54.300;18.592;2022-09-01T00:38:23;11.28;90.87
67249;SHT31;54162;54.300;18.592;2022-09-01T00:40:48;11.15;90.68
67249;SHT31;54162;54.300;18.592;2022-09-01T00:43:21;11.19;90.94
67249;SHT31;54162;54.300;18.592;2022-09-01T00:45:47;11.14;90.98
67249;SHT31;54162;54.300;18.592;2022-09-01T00:48:16;11.22;91.62
67249;SHT31;54162;54.300;18.592;2022-09-01T00:50:42;11.29;90.38
67249;SHT31;54162;54.300;18.592;2022-09-01T00:53:08;11.45;90.04
67249;SHT31;54162;54.300;18.592;2022-09-01T00:55:35;11.58;89.64
67249;SHT31;54162;54.300;18.592;2022-09-01T00:58:03;11.59;89.82
67249;SHT31;54162;54.300;18.592;2022-09-01T01:00:31;11.77;89.41
67249;SHT31;54162;54.300;18.592;2022-09-01T01:02:57;11.90;90.25
67249;SHT31;54162;54.300;18.592;2022-09-01T01:05:26;11.96;89.93
67249;SHT31;54162;54.300;18.592;2022-09-01T01:07:58;12.00;90.07
67249;SHT31;54162;54.300;18.592;2022-09-01T01:10:25;12.08;90.26
67249;SHT31;54162;54.300;18.592;2022-09-01T01:12:50;12.12;90.51
67249;SHT31;54162;54.300;18.592;2022-09-01T01:15:18;12.25;90.62
67249;SHT31;54162;54.300;18.592;2022-09-01T01:17:44;12.23;91.18
67249;SHT31;54162;54.300;18.592;2022-09-01T01:20:13;12.55;92.29
67249;SHT31;54162;54.300;18.592;2022-09-01T01:23:17;12.20;90.80
67249;SHT31;54162;54.300;18.592;2022-09-01T01:25:50;12.42;90.65
67249;SHT31;54162;54.300;18.592;2022-09-01T01:28:21;12.34;90.18
67249;SHT31;54162;54.300;18.592;2022-09-01T01:30:50;12.42;90.60
67249;SHT31;54162;54.300;18.592;2022-09-01T01:33:20;12.35;89.70
67249;SHT31;54162;54.300;18.592;2022-09-01T01:35:47;12.35;89.48
67249;SHT31;54162;54.300;18.592;2022-09-01T01:38:13;12.37;88.69
67249;SHT31;54162;54.300;18.592;2022-09-01T01:40:40;12.46;88.71
67249;SHT31;54162;54.300;18.592;2022-09-01T01:43:06;12.56;87.72
67249;SHT31;54162;54.300;18.592;2022-09-01T01:45:32;12.75;88.14
67249;SHT31;54162;54.300;18.592;2022-09-01T01:47:57;12.85;87.58
67249;SHT31;54162;54.300;18.592;2022-09-01T01:50:31;12.78;86.33
67249;SHT31;54162;54.300;18.592;2022-09-01T01:53:02;12.92;86.30
67249;SHT31;54162;54.300;18.592;2022-09-01T01:55:28;12.93;85.21
67249;SHT31;54162;54.300;18.592;2022-09-01T01:57:56;12.96;84.58
67249;SHT31;54162;54.300;18.592;2022-09-01T02:00:26;13.16;84.17
67249;SHT31;54162;54.300;18.592;2022-09-01T02:02:53;13.10;83.87
67249;SHT31;54162;54.300;18.592;2022-09-01T02:05:25;13.14;84.38
67249;SHT31;54162;54.300;18.592;2022-09-01T02:07:54;13.19;83.39
67249;SHT31;54162;54.300;18.592;2022-09-01T02:10:24;13.14;84.11
67249;SHT31;54162;54.300;18.592;2022-09-01T02:12:50;13.07;84.53
67249;SHT31;54162;54.300;18.592;2022-09-01T02:15:17;13.09;84.19
67249;SHT31;54162;54.300;18.592;2022-09-01T02:17:42;13.02;84.04
67249;SHT31;54162;54.300;18.592;2022-09-01T02:20:10;13.12;84.31
67249;SHT31;54162;54.300;18.592;2022-09-01T02:22:36;13.09;83.90
67249;SHT31;54162;54.300;18.592;2022-09-01T02:25:09;13.16;83.47
67249;SHT31;54162;54.300;18.592;2022-09-01T02:27:35;13.10;83.76
67249;SHT31;54162;54.300;18.592;2022-09-01T02:30:05;13.07;83.84
67249;SHT31;54162;54.300;18.592;2022-09-01T02:32:34;13.12;83.71
67249;SHT31;54162;54.300;18.592;2022-09-01T02:35:00;13.12;84.12
67249;SHT31;54162;54.300;18.592;2022-09-01T02:37:26;13.04;83.89
67249;SHT31;54162;54.300;18.592;2022-09-01T02:39:51;12.93;84.51
67249;SHT31;54162;54.300;18.592;2022-09-01T02:42:18;12.89;84.95
67249;SHT31;54162;54.300;18.592;2022-09-01T02:44:55;12.76;85.34
67249;SHT31;54162;54.300;18.592;2022-09-01T02:47:22;12.72;85.38
67249;SHT31;54162;54.300;18.592;2022-09-01T02:49:49;12.82;86.85
67249;SHT31;54162;54.300;18.592;2022-09-01T02:52:14;12.62;86.23
67249;SHT31;54162;54.300;18.592;2022-09-01T02:54:42;12.49;87.05
67249;SHT31;54162;54.300;18.592;2022-09-01T02:57:10;12.42;87.32
67249;SHT31;54162;54.300;18.592;2022-09-01T02:59:36;12.42;88.19
67249;SHT31;54162;54.300;18.592;2022-09-01T03:02:02;12.28;88.13
67249;SHT31;54162;54.300;18.592;2022-09-01T03:04:28;12.34;88.31
67249;SHT31;54162;54.300;18.592;2022-09-01T03:06:58;12.27;88.37
67249;SHT31;54162;54.300;18.592;2022-09-01T03:09:23;12.30;88.28
67249;SHT31;54162;54.300;18.592;2022-09-01T03:11:50;12.24;88.08
67249;SHT31;54162;54.300;18.592;2022-09-01T03:14:17;12.34;88.00
67249;SHT31;54162;54.300;18.592;2022-09-01T03:16:43;12.33;87.95
67249;SHT31;54162;54.300;18.592;2022-09-01T03:19:09;12.38;87.87
67249;SHT31;54162;54.300;18.592;2022-09-01T03:21:38;12.34;88.01
67249;SHT31;54162;54.300;18.592;2022-09-01T03:24:09;12.37;87.88
67249;SHT31;54162;54.300;18.592;2022-09-01T03:26:36;12.45;87.78
67249;SHT31;54162;54.300;18.592;2022-09-01T03:29:03;12.48;87.34
67249;SHT31;54162;54.300;18.592;2022-09-01T03:31:29;12.52;87.38
67249;SHT31;54162;54.300;18.592;2022-09-01T03:33:54;12.66;87.78
67249;SHT31;54162;54.300;18.592;2022-09-01T03:36:22;12.65;87.47
67249;SHT31;54162;54.300;18.592;2022-09-01T03:38:50;12.71;87.85
67249;SHT31;54162;54.300;18.592;2022-09-01T03:41:20;12.75;87.79
67249;SHT31;54162;54.300;18.592;2022-09-01T03:43:47;12.72;87.27
67249;SHT31;54162;54.300;18.592;2022-09-01T03:46:13;12.71;87.55
67249;SHT31;54162;54.300;18.592;2022-09-01T03:48:58;12.76;87.23
67249;SHT31;54162;54.300;18.592;2022-09-01T03:51:27;12.75;87.03
67249;SHT31;54162;54.300;18.592;2022-09-01T03:53:56;12.91;87.19
67249;SHT31;54162;54.300;18.592;2022-09-01T03:56:23;12.88;87.02
67249;SHT31;54162;54.300;18.592;2022-09-01T03:58:50;13.02;87.43
67249;SHT31;54162;54.300;18.592;2022-09-01T04:01:17;13.12;87.03
67249;SHT31;54162;54.300;18.592;2022-09-01T04:03:44;12.92;86.82
67249;SHT31;54162;54.300;18.592;2022-09-01T04:06:14;13.04;87.50
67249;SHT31;54162;54.300;18.592;2022-09-01T04:08:39;12.97;86.58
67249;SHT31;54162;54.300;18.592;2022-09-01T04:11:15;12.97;86.93
67249;SHT31;54162;54.300;18.592;2022-09-01T04:13:44;12.99;86.82
67249;SHT31;54162;54.300;18.592;2022-09-01T04:16:22;12.99;87.28
67249;SHT31;54162;54.300;18.592;2022-09-01T04:19:06;13.03;86.67
67249;SHT31;54162;54.300;18.592;2022-09-01T04:21:47;13.02;86.70
67249;SHT31;54162;54.300;18.592;2022-09-01T04:24:14;13.14;86.86
67249;SHT31;54162;54.300;18.592;2022-09-01T04:26:40;13.20;86.58
67249;SHT31;54162;54.300;18.592;2022-09-01T04:29:06;13.27;86.05
67249;SHT31;54162;54.300;18.592;2022-09-01T04:31:35;13.36;85.74
67249;SHT31;54162;54.300;18.592;2022-09-01T04:34:02;13.39;85.64
67249;SHT31;54162;54.300;18.592;2022-09-01T04:36:29;13.37;85.96
67249;SHT31;54162;54.300;18.592;2022-09-01T04:39:01;13.46;86.20
67249;SHT31;54162;54.300;18.592;2022-09-01T04:41:34;13.44;85.73
67249;SHT31;54162;54.300;18.592;2022-09-01T04:44:00;13.50;86.01
67249;SHT31;54162;54.300;18.592;2022-09-01T04:46:30;13.54;85.66
67249;SHT31;54162;54.300;18.592;2022-09-01T04:49:00;13.50;85.86
67249;SHT31;54162;54.300;18.592;2022-09-01T04:51:30;13.57;85.93
67249;SHT31;54162;54.300;18.592;2022-09-01T04:53:57;13.67;85.87
67249;SHT31;54162;54.300;18.592;2022-09-01T04:56:24;13.78;86.29
67249;SHT31;54162;54.300;18.592;2022-09-01T04:58:52;13.79;85.30
67249;SHT31;54162;54.300;18.592;2022-09-01T05:01:23;13.65;85.67
67249;SHT31;54162;54.300;18.592;2022-09-01T05:03:50;13.71;85.66
67249;SHT31;54162;54.300;18.592;2022-09-01T05:06:26;13.90;84.99
67249;SHT31;54162;54.300;18.592;2022-09-01T05:08:52;13.85;84.97
67249;SHT31;54162;54.300;18.592;2022-09-01T05:11:20;13.79;85.29
67249;SHT31;54162;54.300;18.592;2022-09-01T05:13:49;14.08;84.44
67249;SHT31;54162;54.300;18.592;2022-09-01T05:16:17;15.25;81.04
67249;SHT31;54162;54.300;18.592;2022-09-01T05:18:47;16.66;78.17
67249;SHT31;54162;54.300;18.592;2022-09-01T05:21:18;17.16;75.26
67249;SHT31;54162;54.300;18.592;2022-09-01T05:23:47;17.14;75.28
67249;SHT31;54162;54.300;18.592;2022-09-01T05:26:17;16.38;77.35
67249;SHT31;54162;54.300;18.592;2022-09-01T05:28:44;16.18;77.16
67249;SHT31;54162;54.300;18.592;2022-09-01T05:31:09;15.89;77.89
67249;SHT31;54162;54.300;18.592;2022-09-01T05:33:37;17.87;74.02
67249;SHT31;54162;54.300;18.592;2022-09-01T05:36:09;18.75;71.47
67249;SHT31;54162;54.300;18.592;2022-09-01T05:38:36;19.50;69.84
67249;SHT31;54162;54.300;18.592;2022-09-01T05:41:03;19.73;67.87
67249;SHT31;54162;54.300;18.592;2022-09-01T05:43:31;20.11;66.75
67249;SHT31;54162;54.300;18.592;2022-09-01T05:45:58;18.34;70.89
67249;SHT31;54162;54.300;18.592;2022-09-01T05:48:26;19.12;69.60
67249;SHT31;54162;54.300;18.592;2022-09-01T05:50:56;18.00;71.63
67249;SHT31;54162;54.300;18.592;2022-09-01T05:53:22;17.56;72.90
67249;SHT31;54162;54.300;18.592;2022-09-01T05:55:50;19.61;68.98
67249;SHT31;54162;54.300;18.592;2022-09-01T05:58:18;20.74;66.21
67249;SHT31;54162;54.300;18.592;2022-09-01T06:00:45;21.19;63.81
67249;SHT31;54162;54.300;18.592;2022-09-01T06:03:16;22.61;62.26
67249;SHT31;54162;54.300;18.592;2022-09-01T06:05:42;23.31;58.74
67249;SHT31;54162;54.300;18.592;2022-09-01T06:08:12;23.99;56.86
67249;SHT31;54162;54.300;18.592;2022-09-01T06:10:40;23.82;55.77
67249;SHT31;54162;54.300;18.592;2022-09-01T06:13:09;23.03;58.06
67249;SHT31;54162;54.300;18.592;2022-09-01T06:15:36;24.25;55.72
67249;SHT31;54162;54.300;18.592;2022-09-01T06:18:06;24.30;56.12
67249;SHT31;54162;54.300;18.592;2022-09-01T06:20:37;25.19;53.79
67249;SHT31;54162;54.300;18.592;2022-09-01T06:23:05;25.59;52.43
67249;SHT31;54162;54.300;18.592;2022-09-01T06:25:30;25.10;52.99
67249;SHT31;54162;54.300;18.592;2022-09-01T06:27:57;25.42;53.37
67249;SHT31;54162;54.300;18.592;2022-09-01T06:30:23;25.19;52.89
67249;SHT31;54162;54.300;18.592;2022-09-01T06:32:52;25.62;51.76
67249;SHT31;54162;54.300;18.592;2022-09-01T06:35:18;26.45;49.80
67249;SHT31;54162;54.300;18.592;2022-09-01T06:37:44;26.38;50.73
67249;SHT31;54162;54.300;18.592;2022-09-01T06:40:15;25.28;52.20
67249;SHT31;54162;54.300;18.592;2022-09-01T06:42:48;23.74;55.55
67249;SHT31;54162;54.300;18.592;2022-09-01T06:45:16;22.64;56.97
67249;SHT31;54162;54.300;18.592;2022-09-01T06:47:44;21.11;60.24
67249;SHT31;54162;54.300;18.592;2022-09-01T06:50:11;20.59;61.43
67249;SHT31;54162;54.300;18.592;2022-09-01T06:52:38;19.70;63.40
67249;SHT31;54162;54.300;18.592;2022-09-01T06:55:05;19.50;63.50
67249;SHT31;54162;54.300;18.592;2022-09-01T06:57:30;18.89;64.62
67249;SHT31;54162;54.300;18.592;2022-09-01T06:59:56;18.54;67.09
67249;SHT31;54162;54.300;18.592;2022-09-01T07:02:21;19.13;65.18
67249;SHT31;54162;54.300;18.592;2022-09-01T07:04:47;20.15;62.52
67249;SHT31;54162;54.300;18.592;2022-09-01T07:07:14;23.09;55.36
67249;SHT31;54162;54.300;18.592;2022-09-01T07:09:39;22.18;57.47
67249;SHT31;54162;54.300;18.592;2022-09-01T07:12:05;21.25;58.28
67249;SHT31;54162;54.300;18.592;2022-09-01T07:14:31;21.63;58.01
67249;SHT31;54162;54.300;18.592;2022-09-01T07:16:57;21.94;56.87
67249;SHT31;54162;54.300;18.592;2022-09-01T07:19:23;21.67;58.32
67249;SHT31;54162;54.300;18.592;2022-09-01T07:21:52;22.08;58.39
67249;SHT31;54162;54.300;18.592;2022-09-01T07:24:18;21.87;56.96
67249;SHT31;54162;54.300;18.592;2022-09-01T07:26:45;21.58;57.48
67249;SHT31;54162;54.300;18.592;2022-09-01T07:29:15;21.38;58.03
67249;SHT31;54162;54.300;18.592;2022-09-01T07:31:42;21.67;58.17
67249;SHT31;54162;54.300;18.592;2022-09-01T07:34:11;22.43;56.21
67249;SHT31;54162;54.300;18.592;2022-09-01T07:36:39;21.72;57.68
67249;SHT31;54162;54.300;18.592;2022-09-01T07:39:06;23.75;54.42
67249;SHT31;54162;54.300;18.592;2022-09-01T07:41:32;22.85;55.04
67249;SHT31;54162;54.300;18.592;2022-09-01T07:43:59;25.04;51.26
67249;SHT31;54162;54.300;18.592;2022-09-01T07:46:25;26.93;47.25
67249;SHT31;54162;54.300;18.592;2022-09-01T07:48:55;26.87;45.80
67249;SHT31;54162;54.300;18.592;2022-09-01T07:51:23;26.14;47.41
67249;SHT31;54162;54.300;18.592;2022-09-01T07:53:50;26.16;48.34
67249;SHT31;54162;54.300;18.592;2022-09-01T07:56:18;26.85;45.45
67249;SHT31;54162;54.300;18.592;2022-09-01T07:58:46;23.62;50.47
67249;SHT31;54162;54.300;18.592;2022-09-01T08:01:17;21.82;55.24
67249;SHT31;54162;54.300;18.592;2022-09-01T08:03:45;20.56;59.27
67249;SHT31;54162;54.300;18.592;2022-09-01T08:06:16;19.84;62.31
67249;SHT31;54162;54.300;18.592;2022-09-01T08:08:44;19.08;63.28
67249;SHT31;54162;54.300;18.592;2022-09-01T08:11:18;18.58;65.27
67249;SHT31;54162;54.300;18.592;2022-09-01T08:13:45;19.71;63.76
67249;SHT31;54162;54.300;18.592;2022-09-01T08:16:11;23.74;53.89
67249;SHT31;54162;54.300;18.592;2022-09-01T08:18:38;25.87;49.38
67249;SHT31;54162;54.300;18.592;2022-09-01T08:21:07;27.27;46.52
67249;SHT31;54162;54.300;18.592;2022-09-01T08:23:33;27.07;45.76
67249;SHT31;54162;54.300;18.592;2022-09-01T08:26:06;24.73;46.47
67249;SHT31;54162;54.300;18.592;2022-09-01T08:28:32;27.68;43.89
67249;SHT31;54162;54.300;18.592;2022-09-01T08:30:58;27.57;40.82
67249;SHT31;54162;54.300;18.592;2022-09-01T08:33:25;28.49;42.93
67249;SHT31;54162;54.300;18.592;2022-09-01T08:35:51;26.41;43.64
67249;SHT31;54162;54.300;18.592;2022-09-01T08:38:17;26.71;42.87
67249;SHT31;54162;54.300;18.592;2022-09-01T08:40:52;24.60;48.15
67249;SHT31;54162;54.300;18.592;2022-09-01T08:45:53;24.73;48.04
67249;SHT31;54162;54.300;18.592;2022-09-01T08:48:26;23.86;48.81
67249;SHT31;54162;54.300;18.592;2022-09-01T08:51:23;21.96;51.85
67249;SHT31;54162;54.300;18.592;2022-09-01T08:56:46;27.96;43.72
67249;SHT31;54162;54.300;18.592;2022-09-01T08:59:17;28.72;42.01
67249;SHT31;54162;54.300;18.592;2022-09-01T09:10:26;27.06;43.18
67249;SHT31;54162;54.300;18.592;2022-09-01T09:13:05;27.23;42.09
67249;SHT31;54162;54.300;18.592;2022-09-01T09:16:05;26.80;44.62
67249;SHT31;54162;54.300;18.592;2022-09-01T09:18:41;23.41;49.93
67249;SHT31;54162;54.300;18.592;2022-09-01T09:21:15;24.10;49.08
67249;SHT31;54162;54.300;18.592;2022-09-01T09:23:47;23.03;51.10
67249;SHT31;54162;54.300;18.592;2022-09-01T09:26:15;20.94;57.81
67249;SHT31;54162;54.300;18.592;2022-09-01T09:28:42;20.76;60.95
67249;SHT31;54162;54.300;18.592;2022-09-01T09:33:52;17.27;70.82
67249;SHT31;54162;54.300;18.592;2022-09-01T09:36:21;16.86;71.87
67249;SHT31;54162;54.300;18.592;2022-09-01T09:38:46;16.36;73.09
67249;SHT31;54162;54.300;18.592;2022-09-01T09:41:25;16.38;73.28
67249;SHT31;54162;54.300;18.592;2022-09-01T09:46:40;17.18;73.55
67249;SHT31;54162;54.300;18.592;2022-09-01T09:51:37;19.64;67.36
67249;SHT31;54162;54.300;18.592;2022-09-01T09:54:11;21.83;59.99
67249;SHT31;54162;54.300;18.592;2022-09-01T09:56:38;21.97;57.23
67249;SHT31;54162;54.300;18.592;2022-09-01T09:59:17;22.81;51.37
67249;SHT31;54162;54.300;18.592;2022-09-01T10:01:43;22.99;51.99
67249;SHT31;54162;54.300;18.592;2022-09-01T10:04:09;21.07;53.98
67249;SHT31;54162;54.300;18.592;2022-09-01T10:06:39;20.08;58.78
67249;SHT31;54162;54.300;18.592;2022-09-01T10:11:44;18.65;65.06
67249;SHT31;54162;54.300;18.592;2022-09-01T10:14:19;17.92;67.00
67249;SHT31;54162;54.300;18.592;2022-09-01T10:16:47;16.76;70.28
67249;SHT31;54162;54.300;18.592;2022-09-01T10:19:15;16.67;72.78
67249;SHT31;54162;54.300;18.592;2022-09-01T10:21:43;17.06;71.36
67249;SHT31;54162;54.300;18.592;2022-09-01T10:26:41;16.58;74.26
67249;SHT31;54162;54.300;18.592;2022-09-01T10:29:25;16.62;74.52
67249;SHT31;54162;54.300;18.592;2022-09-01T10:31:58;16.63;74.39
67249;SHT31;54162;54.300;18.592;2022-09-01T10:34:26;16.65;74.39
67249;SHT31;54162;54.300;18.592;2022-09-01T10:36:54;16.44;74.31
67249;SHT31;54162;54.300;18.592;2022-09-01T10:39:20;17.00;74.23
67249;SHT31;54162;54.300;18.592;2022-09-01T10:41:47;17.41;74.34
67249;SHT31;54162;54.300;18.592;2022-09-01T10:44:28;17.87;72.64
67249;SHT31;54162;54.300;18.592;2022-09-01T10:47:00;17.99;72.29
67249;SHT31;54162;54.300;18.592;2022-09-01T10:51:52;17.96;73.73
67249;SHT31;54162;54.300;18.592;2022-09-01T10:57:25;18.48;73.08
67249;SHT31;54162;54.300;18.592;2022-09-01T10:59:53;18.65;72.86
67249;SHT31;54162;54.300;18.592;2022-09-01T11:02:22;19.16;70.94
67249;SHT31;54162;54.300;18.592;2022-09-01T11:20:37;18.48;62.72
67249;SHT31;54162;54.300;18.592;2022-09-01T11:23:04;18.68;63.20
67249;SHT31;54162;54.300;18.592;2022-09-01T11:25:44;19.53;61.58
67249;SHT31;54162;54.300;18.592;2022-09-01T11:35:42;19.38;60.56
67249;SHT31;54162;54.300;18.592;2022-09-01T11:38:11;19.75;59.66
67249;SHT31;54162;54.300;18.592;2022-09-01T11:40:38;20.30;58.24
67249;SHT31;54162;54.300;18.592;2022-09-01T11:43:07;19.41;57.41
67249;SHT31;54162;54.300;18.592;2022-09-01T11:45:41;19.70;56.68
67249;SHT31;54162;54.300;18.592;2022-09-01T11:48:10;19.73;57.07
67249;SHT31;54162;54.300;18.592;2022-09-01T11:50:39;20.02;58.94
67249;SHT31;54162;54.300;18.592;2022-09-01T11:53:13;20.52;56.63
67249;SHT31;54162;54.300;18.592;2022-09-01T11:55:45;19.91;55.63
67249;SHT31;54162;54.300;18.592;2022-09-01T11:58:28;19.26;56.45
67249;SHT31;54162;54.300;18.592;2022-09-01T12:00:57;19.84;57.58
67249;SHT31;54162;54.300;18.592;2022-09-01T12:03:35;20.57;55.67
67249;SHT31;54162;54.300;18.592;2022-09-01T12:06:03;19.94;58.95
67249;SHT31;54162;54.300;18.592;2022-09-01T12:08:37;20.62;59.56
67249;SHT31;54162;54.300;18.592;2022-09-01T12:11:05;19.41;63.26
67249;SHT31;54162;54.300;18.592;2022-09-01T12:13:31;18.12;67.91
67249;SHT31;54162;54.300;18.592;2022-09-01T12:16:00;17.42;69.91
67249;SHT31;54162;54.300;18.592;2022-09-01T12:18:47;17.64;69.32
67249;SHT31;54162;54.300;18.592;2022-09-01T12:24:16;17.34;70.21
67249;SHT31;54162;54.300;18.592;2022-09-01T12:26:43;17.68;68.72
67249;SHT31;54162;54.300;18.592;2022-09-01T12:29:10;17.97;68.96
67249;SHT31;54162;54.300;18.592;2022-09-01T12:31:40;18.52;68.09
67249;SHT31;54162;54.300;18.592;2022-09-01T12:37:19;18.68;67.44
67249;SHT31;54162;54.300;18.592;2022-09-01T12:39:50;18.76;65.69
67249;SHT31;54162;54.300;18.592;2022-09-01T12:44:51;17.79;64.01
67249;SHT31;54162;54.300;18.592;2022-09-01T12:52:55;18.89;62.12
67249;SHT31;54162;54.300;18.592;2022-09-01T12:55:28;19.08;63.33
67249;SHT31;54162;54.300;18.592;2022-09-01T12:57:56;18.71;62.37
67249;SHT31;54162;54.300;18.592;2022-09-01T13:00:24;18.18;62.57
67249;SHT31;54162;54.300;18.592;2022-09-01T13:05:37;18.89;62.52
67249;SHT31;54162;54.300;18.592;2022-09-01T13:08:17;18.67;62.21
67249;SHT31;54162;54.300;18.592;2022-09-01T13:10:48;18.54;62.18
67249;SHT31;54162;54.300;18.592;2022-09-01T13:13:14;18.85;60.61
67249;SHT31;54162;54.300;18.592;2022-09-01T13:15:45;19.27;59.59
67249;SHT31;54162;54.300;18.592;2022-09-01T13:18:18;18.52;59.47
67249;SHT31;54162;54.300;18.592;2022-09-01T13:20:45;18.44;60.73
67249;SHT31;54162;54.300;18.592;2022-09-01T13:23:10;18.38;62.09
67249;SHT31;54162;54.300;18.592;2022-09-01T13:25:37;18.54;60.61
67249;SHT31;54162;54.300;18.592;2022-09-01T13:28:04;18.84;61.39
67249;SHT31;54162;54.300;18.592;2022-09-01T13:30:32;18.58;63.15
67249;SHT31;54162;54.300;18.592;2022-09-01T13:32:58;18.31;63.22
67249;SHT31;54162;54.300;18.592;2022-09-01T13:35:24;18.24;63.66
67249;SHT31;54162;54.300;18.592;2022-09-01T13:37:50;18.29;64.88
67249;SHT31;54162;54.300;18.592;2022-09-01T13:40:17;19.08;63.38
67249;SHT31;54162;54.300;18.592;2022-09-01T13:42:49;19.16;61.19
67249;SHT31;54162;54.300;18.592;2022-09-01T13:45:16;18.94;60.65
67249;SHT31;54162;54.300;18.592;2022-09-01T13:47:44;19.38;60.54
67249;SHT31;54162;54.300;18.592;2022-09-01T13:50:13;18.99;60.49
67249;SHT31;54162;54.300;18.592;2022-09-01T13:52:44;18.84;60.98
67249;SHT31;54162;54.300;18.592;2022-09-01T13:55:13;18.62;61.97
67249;SHT31;54162;54.300;18.592;2022-09-01T13:57:39;18.85;59.12
67249;SHT31;54162;54.300;18.592;2022-09-01T14:00:08;19.05;59.51
67249;SHT31;54162;54.300;18.592;2022-09-01T14:02:36;18.51;59.89
67249;SHT31;54162;54.300;18.592;2022-09-01T14:05:02;18.30;61.38
67249;SHT31;54162;54.300;18.592;2022-09-01T14:07:28;18.26;63.42
67249;SHT31;54162;54.300;18.592;2022-09-01T14:09:54;18.61;61.69
67249;SHT31;54162;54.300;18.592;2022-09-01T14:12:20;18.67;60.62
67249;SHT31;54162;54.300;18.592;2022-09-01T14:14:45;18.27;62.08
67249;SHT31;54162;54.300;18.592;2022-09-01T14:17:11;17.92;63.33
67249;SHT31;54162;54.300;18.592;2022-09-01T14:19:37;17.65;64.67
67249;SHT31;54162;54.300;18.592;2022-09-01T14:22:03;17.76;65.39
67249;SHT31;54162;54.300;18.592;2022-09-01T14:24:33;17.52;63.24
67249;SHT31;54162;54.300;18.592;2022-09-01T14:27:00;17.85;62.34
67249;SHT31;54162;54.300;18.592;2022-09-01T14:29:25;18.24;62.06
67249;SHT31;54162;54.300;18.592;2022-09-01T14:31:51;18.23;62.97
67249;SHT31;54162;54.300;18.592;2022-09-01T14:34:17;18.64;62.68
67249;SHT31;54162;54.300;18.592;2022-09-01T14:36:43;18.44;62.23
67249;SHT31;54162;54.300;18.592;2022-09-01T14:39:09;18.17;62.36
67249;SHT31;54162;54.300;18.592;2022-09-01T14:41:35;17.71;62.36
67249;SHT31;54162;54.300;18.592;2022-09-01T14:44:00;17.73;63.21
67249;SHT31;54162;54.300;18.592;2022-09-01T14:46:27;17.82;64.00
67249;SHT31;54162;54.300;18.592;2022-09-01T14:48:55;18.04;62.68
67249;SHT31;54162;54.300;18.592;2022-09-01T14:51:23;18.03;61.50
67249;SHT31;54162;54.300;18.592;2022-09-01T14:53:51;17.81;62.44
67249;SHT31;54162;54.300;18.592;2022-09-01T14:56:17;17.69;63.81
67249;SHT31;54162;54.300;18.592;2022-09-01T14:58:44;17.69;64.42
67249;SHT31;54162;54.300;18.592;2022-09-01T15:01:16;17.48;64.25
67249;SHT31;54162;54.300;18.592;2022-09-01T15:03:43;17.10;64.95
67249;SHT31;54162;54.300;18.592;2022-09-01T15:06:12;17.35;65.28
67249;SHT31;54162;54.300;18.592;2022-09-01T15:08:38;17.76;63.37
67249;SHT31;54162;54.300;18.592;2022-09-01T15:11:09;17.92;64.82
67249;SHT31;54162;54.300;18.592;2022-09-01T15:13:35;17.68;67.81
67249;SHT31;54162;54.300;18.592;2022-09-01T15:16:01;17.86;68.24
67249;SHT31;54162;54.300;18.592;2022-09-01T15:18:28;17.83;67.63
67249;SHT31;54162;54.300;18.592;2022-09-01T15:20:53;17.65;67.70
67249;SHT31;54162;54.300;18.592;2022-09-01T15:23:21;17.35;67.97
67249;SHT31;54162;54.300;18.592;2022-09-01T15:25:50;17.17;68.37
67249;SHT31;54162;54.300;18.592;2022-09-01T15:28:16;17.35;68.14
67249;SHT31;54162;54.300;18.592;2022-09-01T15:30:43;17.14;67.54
67249;SHT31;54162;54.300;18.592;2022-09-01T15:33:10;17.30;68.17
67249;SHT31;54162;54.300;18.592;2022-09-01T15:35:36;17.41;67.37
67249;SHT31;54162;54.300;18.592;2022-09-01T15:38:02;17.49;67.27
67249;SHT31;54162;54.300;18.592;2022-09-01T15:40:28;17.24;66.35
67249;SHT31;54162;54.300;18.592;2022-09-01T15:42:55;17.41;66.26
67249;SHT31;54162;54.300;18.592;2022-09-01T15:45:23;17.31;66.29
67249;SHT31;54162;54.300;18.592;2022-09-01T15:47:49;17.27;65.38
67249;SHT31;54162;54.300;18.592;2022-09-01T15:50:17;17.14;65.52
67249;SHT31;54162;54.300;18.592;2022-09-01T15:52:48;17.06;66.08
67249;SHT31;54162;54.300;18.592;2022-09-01T15:55:17;17.00;66.47
67249;SHT31;54162;54.300;18.592;2022-09-01T15:57:43;17.13;67.07
67249;SHT31;54162;54.300;18.592;2022-09-01T16:00:09;16.67;66.73
67249;SHT31;54162;54.300;18.592;2022-09-01T16:02:35;16.79;66.74
67249;SHT31;54162;54.300;18.592;2022-09-01T16:05:01;16.88;66.56
67249;SHT31;54162;54.300;18.592;2022-09-01T16:07:27;16.70;67.93
67249;SHT31;54162;54.300;18.592;2022-09-01T16:09:52;16.83;67.61
67249;SHT31;54162;54.300;18.592;2022-09-01T16:12:23;16.79;68.49
67249;SHT31;54162;54.300;18.592;2022-09-01T16:14:51;16.70;68.51
67249;SHT31;54162;54.300;18.592;2022-09-01T16:17:27;16.69;68.57
67249;SHT31;54162;54.300;18.592;2022-09-01T16:20:09;16.53;68.89
67249;SHT31;54162;54.300;18.592;2022-09-01T16:22:45;16.55;69.17
67249;SHT31;54162;54.300;18.592;2022-09-01T16:25:22;16.41;69.74
67249;SHT31;54162;54.300;18.592;2022-09-01T16:27:49;16.65;69.34
67249;SHT31;54162;54.300;18.592;2022-09-01T16:30:19;16.65;69.11
67249;SHT31;54162;54.300;18.592;2022-09-01T16:32:47;16.41;67.59
67249;SHT31;54162;54.300;18.592;2022-09-01T16:35:14;16.60;67.64
67249;SHT31;54162;54.300;18.592;2022-09-01T16:48:18;16.49;67.95